createdAt,value
2018-03-25T00:00:21.200Z,66.50
2018-03-25T00:02:48.632Z,66.70
2018-03-25T00:05:16.102Z,66.90
2018-03-25T00:07:43.570Z,66.70
2018-03-25T00:10:11.015Z,67.10
2018-03-25T00:12:38.474Z,66.80
2018-03-25T00:15:06.037Z,67.40
2018-03-25T00:17:33.506Z,67.10
2018-03-25T00:20:01.101Z,67.20
2018-03-25T00:22:28.572Z,67.30
2018-03-25T00:24:56.068Z,67.50
2018-03-25T00:27:23.504Z,67.40
2018-03-25T00:29:50.963Z,67.60
2018-03-25T00:32:18.426Z,67.60
2018-03-25T00:34:45.865Z,67.80
2018-03-25T00:37:13.346Z,67.70
2018-03-25T00:39:40.782Z,67.90
2018-03-25T00:42:08.264Z,67.40
2018-03-25T00:44:35.741Z,67.80
2018-03-25T00:47:03.964Z,68.10
2018-03-25T00:49:31.438Z,68.10
2018-03-25T00:51:59.300Z,67.80
2018-03-25T00:54:26.739Z,68.20
2018-03-25T00:56:54.199Z,68.30
2018-03-25T00:59:21.675Z,68.30
2018-03-25T01:01:49.169Z,68.50
2018-03-25T01:04:18.131Z,68.00
2018-03-25T01:06:45.615Z,68.00
2018-03-25T01:09:13.050Z,68.40
2018-03-25T01:11:40.490Z,68.40
2018-03-25T01:14:08.743Z,68.40
2018-03-25T01:16:36.190Z,68.30
2018-03-25T01:19:03.672Z,68.30
2018-03-25T01:21:31.151Z,67.70
2018-03-25T01:23:59.505Z,68.20
2018-03-25T01:26:26.951Z,68.00
2018-03-25T01:28:54.410Z,68.40
2018-03-25T01:31:21.884Z,68.30
2018-03-25T01:33:49.354Z,68.20
2018-03-25T01:36:16.800Z,68.00
2018-03-25T01:38:44.270Z,67.90
2018-03-25T01:41:11.720Z,67.60
2018-03-25T01:43:39.181Z,68.10
2018-03-25T01:46:06.638Z,67.80
2018-03-25T01:48:34.120Z,68.30
2018-03-25T01:51:02.380Z,68.40
2018-03-25T01:53:29.848Z,68.00
2018-03-25T01:55:58.819Z,67.80
2018-03-25T01:58:26.311Z,68.20
2018-03-25T02:00:54.528Z,68.80
2018-03-25T02:03:22.001Z,68.80
2018-03-25T02:05:49.440Z,69.20
2018-03-25T02:08:16.906Z,69.30
2018-03-25T02:10:44.374Z,69.40
2018-03-25T02:13:11.849Z,69.50
2018-03-25T02:15:39.341Z,68.80
2018-03-25T02:18:06.782Z,69.10
2018-03-25T02:20:34.975Z,68.80
2018-03-25T02:23:02.446Z,68.80
2018-03-25T02:25:29.908Z,68.60
2018-03-25T02:27:57.381Z,68.30
2018-03-25T02:30:24.847Z,67.60
2018-03-25T02:32:52.313Z,68.00
2018-03-25T02:35:19.753Z,68.00
2018-03-25T02:37:47.241Z,68.00
2018-03-25T02:40:14.697Z,68.10
2018-03-25T02:42:42.159Z,67.40
2018-03-25T02:45:09.611Z,67.30
2018-03-25T02:47:37.123Z,67.20
2018-03-25T02:50:04.576Z,67.30
2018-03-25T02:52:32.008Z,67.20
2018-03-25T02:55:00.219Z,67.90
2018-03-25T02:57:28.456Z,67.40
2018-03-25T02:59:56.675Z,67.80
2018-03-25T03:02:24.131Z,67.80
2018-03-25T03:04:51.599Z,67.40
2018-03-25T03:07:19.046Z,67.00
2018-03-25T03:09:46.527Z,66.80
2018-03-25T03:12:14.366Z,66.20
2018-03-25T03:14:41.816Z,66.00
2018-03-25T03:17:09.285Z,65.70
2018-03-25T03:19:36.752Z,65.70
2018-03-25T03:22:04.221Z,66.00
2018-03-25T03:24:31.704Z,66.60
2018-03-25T03:26:59.942Z,66.60
2018-03-25T03:29:27.415Z,66.30
2018-03-25T03:31:54.869Z,66.80
2018-03-25T03:34:22.345Z,65.70
2018-03-25T03:36:50.661Z,66.60
2018-03-25T03:39:18.100Z,65.90
2018-03-25T03:41:45.581Z,65.90
2018-03-25T03:44:13.037Z,66.00
2018-03-25T03:46:40.895Z,66.20
2018-03-25T03:49:08.380Z,65.80
2018-03-25T03:51:35.834Z,66.50
2018-03-25T03:54:03.327Z,66.80
2018-03-25T03:56:30.824Z,66.70
2018-03-25T03:58:58.290Z,67.80
2018-03-25T04:01:25.765Z,67.30
2018-03-25T04:03:53.223Z,66.90
2018-03-25T04:06:20.662Z,66.90
2018-03-25T04:08:48.132Z,66.50
2018-03-25T04:11:15.581Z,67.10
2018-03-25T04:13:43.063Z,66.90
2018-03-25T04:16:10.503Z,66.90
2018-03-25T04:18:37.971Z,67.20
2018-03-25T04:21:05.447Z,67.40
2018-03-25T04:23:32.890Z,67.80
2018-03-25T04:26:00.362Z,67.20
2018-03-25T04:28:27.820Z,67.60
2018-03-25T04:30:55.296Z,67.60
2018-03-25T04:33:23.506Z,68.00
2018-03-25T04:35:50.987Z,67.90
2018-03-25T04:38:18.440Z,67.80
2018-03-25T04:40:45.919Z,67.80
2018-03-25T04:43:13.375Z,68.60
2018-03-25T04:45:40.835Z,68.10
2018-03-25T04:48:08.294Z,68.60
2018-03-25T04:50:35.779Z,68.60
2018-03-25T04:53:03.225Z,68.50
2018-03-25T04:55:31.452Z,68.20
2018-03-25T04:57:58.900Z,68.10
2018-03-25T05:00:26.367Z,68.50
2018-03-25T05:02:53.812Z,68.90
2018-03-25T05:05:21.311Z,68.50
2018-03-25T05:07:48.781Z,69.00
2018-03-25T05:10:17.059Z,69.00
2018-03-25T05:12:44.887Z,68.80
2018-03-25T05:15:12.361Z,69.30
2018-03-25T05:17:39.844Z,69.50
2018-03-25T05:20:08.048Z,68.80
2018-03-25T05:22:35.503Z,68.30
2018-03-25T05:25:02.988Z,68.00
2018-03-25T05:27:30.456Z,68.20
2018-03-25T05:29:57.919Z,68.80
2018-03-25T05:32:25.386Z,68.10
2018-03-25T05:34:52.850Z,68.30
2018-03-25T05:37:20.302Z,68.00
2018-03-25T05:39:47.780Z,68.60
2018-03-25T05:42:15.998Z,68.30
2018-03-25T05:44:43.456Z,68.30
2018-03-25T05:47:11.000Z,68.30
2018-03-25T05:49:38.444Z,67.70
2018-03-25T05:52:05.887Z,67.90
2018-03-25T05:54:33.354Z,67.60
2018-03-25T05:57:00.810Z,67.90
2018-03-25T05:59:29.029Z,67.70
2018-03-25T06:01:56.470Z,67.10
2018-03-25T06:04:23.914Z,67.20
2018-03-25T06:06:51.386Z,66.50
2018-03-25T06:09:18.836Z,67.00
2018-03-25T06:11:46.308Z,66.80
2018-03-25T06:14:13.764Z,67.10
2018-03-25T06:16:41.291Z,67.10
2018-03-25T06:19:08.721Z,66.60
2018-03-25T06:21:36.927Z,66.30
2018-03-25T06:24:04.417Z,65.80
2018-03-25T06:26:31.880Z,65.80
2018-03-25T06:28:59.331Z,66.10
2018-03-25T06:31:26.790Z,64.60
2018-03-25T06:33:54.284Z,65.20
2018-03-25T06:36:22.518Z,65.00
2018-03-25T06:38:50.736Z,65.30
2018-03-25T06:41:18.975Z,65.10
2018-03-25T06:43:46.431Z,65.00
2018-03-25T06:46:13.865Z,65.30
2018-03-25T06:48:41.392Z,64.70
2018-03-25T06:51:09.609Z,64.70
2018-03-25T06:53:37.070Z,64.20
2018-03-25T06:56:04.528Z,64.50
2018-03-25T06:58:32.012Z,64.10
2018-03-25T07:01:00.236Z,63.40
2018-03-25T07:03:27.671Z,63.40
2018-03-25T07:05:55.133Z,63.30
2018-03-25T07:08:22.592Z,62.80
2018-03-25T07:10:50.063Z,62.30
2018-03-25T07:13:17.495Z,63.20
2018-03-25T07:15:44.984Z,63.20
2018-03-25T07:18:12.440Z,62.40
2018-03-25T07:20:39.885Z,61.60
2018-03-25T07:23:07.353Z,61.90
2018-03-25T07:25:34.820Z,61.20
2018-03-25T07:28:02.289Z,60.70
2018-03-25T07:30:29.759Z,60.40
2018-03-25T07:32:57.222Z,60.40
2018-03-25T07:35:24.688Z,60.40
2018-03-25T07:37:52.892Z,60.10
2018-03-25T07:40:20.360Z,60.10
2018-03-25T07:42:47.815Z,58.40
2018-03-25T07:45:15.259Z,58.40
2018-03-25T07:47:42.728Z,58.70
2018-03-25T07:50:10.221Z,58.50
2018-03-25T07:52:37.632Z,57.10
2018-03-25T07:55:05.074Z,57.50
2018-03-25T07:57:33.288Z,56.70
2018-03-25T08:00:00.763Z,56.70
2018-03-25T08:02:28.217Z,55.40
2018-03-25T08:04:55.707Z,55.30
2018-03-25T08:07:23.937Z,56.20
2018-03-25T08:09:51.420Z,56.10
2018-03-25T08:12:19.290Z,54.10
2018-03-25T08:14:46.744Z,54.60
2018-03-25T08:17:14.210Z,53.30
2018-03-25T08:19:41.664Z,52.90
2018-03-25T08:22:09.138Z,52.80
2018-03-25T08:24:36.642Z,53.30
2018-03-25T08:27:04.123Z,52.50
2018-03-25T08:29:31.584Z,53.10
2018-03-25T08:31:59.039Z,52.80
2018-03-25T08:34:26.514Z,52.40
2018-03-25T08:36:54.020Z,51.90
2018-03-25T08:39:21.496Z,51.30
2018-03-25T08:41:48.953Z,51.00
2018-03-25T08:44:16.452Z,50.40
2018-03-25T08:46:44.683Z,49.50
2018-03-25T08:49:12.132Z,49.40
2018-03-25T08:51:39.608Z,49.40
2018-03-25T08:54:07.050Z,48.20
2018-03-25T08:56:34.516Z,48.00
2018-03-25T08:59:01.955Z,47.70
2018-03-25T09:01:29.419Z,47.80
2018-03-25T09:03:56.917Z,47.60
2018-03-25T09:06:25.107Z,46.40
2018-03-25T09:08:53.328Z,46.20
2018-03-25T09:11:20.809Z,46.20
2018-03-25T09:13:48.260Z,45.70
2018-03-25T09:16:15.724Z,45.10
2018-03-25T09:18:43.186Z,45.90
2018-03-25T09:21:10.701Z,44.60
2018-03-25T09:23:38.149Z,44.00
2018-03-25T09:26:05.619Z,43.70
2018-03-25T09:28:33.084Z,43.30
2018-03-25T09:31:00.521Z,41.20
2018-03-25T09:33:28.032Z,41.60
2018-03-25T09:35:55.476Z,41.50
2018-03-25T09:38:22.958Z,40.80
2018-03-25T09:40:50.420Z,40.40
2018-03-25T09:43:18.671Z,40.70
2018-03-25T09:45:46.141Z,40.60
2018-03-25T09:48:13.594Z,39.20
2018-03-25T09:50:41.061Z,37.80
2018-03-25T09:53:08.521Z,37.70
2018-03-25T09:55:36.940Z,35.00
2018-03-25T09:58:04.373Z,34.90
2018-03-25T10:00:36.562Z,33.20
2018-03-25T10:03:09.612Z,33.10
2018-03-25T10:05:37.084Z,32.60
2018-03-25T10:08:05.323Z,30.50
2018-03-25T10:10:32.796Z,29.60
2018-03-25T10:13:00.271Z,30.00
2018-03-25T10:15:28.496Z,30.20
2018-03-25T10:17:55.960Z,30.10
2018-03-25T10:20:23.410Z,30.20
2018-03-25T10:22:50.880Z,30.00
2018-03-25T10:25:18.350Z,29.90
2018-03-25T10:27:45.807Z,29.00
2018-03-25T10:30:13.267Z,28.60
2018-03-25T10:32:40.740Z,28.10
2018-03-25T10:35:08.970Z,28.60
2018-03-25T10:37:37.189Z,28.00
2018-03-25T10:40:05.420Z,27.20
2018-03-25T10:42:32.956Z,26.50
2018-03-25T10:45:00.391Z,26.90
2018-03-25T10:47:28.627Z,25.70
2018-03-25T10:49:56.251Z,25.20
2018-03-25T10:52:24.465Z,25.20
2018-03-25T10:54:52.728Z,24.80
2018-03-25T10:57:20.215Z,24.00
2018-03-25T10:59:47.718Z,25.00
2018-03-25T11:02:15.184Z,25.30
2018-03-25T11:04:42.636Z,26.10
2018-03-25T11:07:10.125Z,24.90
2018-03-25T11:09:37.575Z,25.50
2018-03-25T11:12:05.106Z,25.10
2018-03-25T11:14:32.545Z,25.60
2018-03-25T11:17:00.150Z,26.00
2018-03-25T11:19:27.651Z,26.30
2018-03-25T11:21:55.863Z,26.00
2018-03-25T11:24:23.342Z,26.00
2018-03-25T11:26:50.795Z,26.20
2018-03-25T11:29:18.250Z,25.70
2018-03-25T11:31:45.704Z,26.40
2018-03-25T11:34:13.156Z,26.20
2018-03-25T11:36:40.620Z,26.60
2018-03-25T11:39:08.081Z,26.60
2018-03-25T11:41:35.557Z,26.30
2018-03-25T11:44:03.021Z,26.40
2018-03-25T11:46:30.462Z,26.20
2018-03-25T11:48:57.987Z,26.60
2018-03-25T11:51:25.541Z,27.00
2018-03-25T11:53:52.983Z,26.20
2018-03-25T11:56:20.448Z,26.30
2018-03-25T11:58:47.898Z,26.50
2018-03-25T12:01:15.388Z,26.40
2018-03-25T12:03:42.828Z,25.80
2018-03-25T12:06:10.288Z,26.10
2018-03-25T12:08:37.730Z,26.10
2018-03-25T12:11:05.194Z,26.20
2018-03-25T12:13:32.635Z,25.90
2018-03-25T12:16:00.118Z,25.70
2018-03-25T12:18:27.553Z,25.80
2018-03-25T12:20:55.029Z,26.10
2018-03-25T12:23:22.480Z,26.10
2018-03-25T12:25:49.932Z,25.70
2018-03-25T12:28:17.400Z,25.80
2018-03-25T12:30:44.869Z,25.80
2018-03-25T12:33:13.158Z,25.80
2018-03-25T12:35:41.327Z,26.30
2018-03-25T12:38:08.767Z,26.00
2018-03-25T12:40:36.267Z,26.40
2018-03-25T12:43:03.736Z,26.50
2018-03-25T12:45:31.951Z,26.50
2018-03-25T12:47:59.401Z,26.20
2018-03-25T12:50:26.872Z,26.60
2018-03-25T12:52:54.423Z,26.40
2018-03-25T12:55:21.886Z,26.90
2018-03-25T12:57:49.381Z,26.60
2018-03-25T13:00:16.848Z,26.80
2018-03-25T13:02:44.315Z,27.10
2018-03-25T13:05:12.537Z,27.30
2018-03-25T13:07:40.022Z,27.20
2018-03-25T13:10:07.932Z,27.40
2018-03-25T13:12:35.407Z,27.60
2018-03-25T13:15:02.875Z,27.60
2018-03-25T13:17:30.348Z,28.00
2018-03-25T13:19:57.791Z,28.30
2018-03-25T13:22:25.279Z,28.20
2018-03-25T13:24:53.478Z,28.00
2018-03-25T13:27:20.996Z,27.90
2018-03-25T13:29:49.336Z,28.00
2018-03-25T13:32:16.910Z,28.30
2018-03-25T13:34:44.392Z,28.80
2018-03-25T13:37:12.600Z,28.90
2018-03-25T13:39:40.827Z,28.90
2018-03-25T13:42:08.293Z,28.30
2018-03-25T13:44:35.757Z,28.70
2018-03-25T13:47:03.212Z,29.20
2018-03-25T13:49:30.692Z,29.30
2018-03-25T13:51:58.152Z,29.20
2018-03-25T13:54:25.660Z,32.10
2018-03-25T13:56:53.847Z,29.10
2018-03-25T13:59:21.315Z,29.10
2018-03-25T14:01:48.759Z,28.80
2018-03-25T14:04:16.248Z,29.40
2018-03-25T14:06:44.487Z,29.50
2018-03-25T14:09:11.947Z,29.50
2018-03-25T14:11:39.597Z,28.60
2018-03-25T14:14:07.058Z,28.10
2018-03-25T14:16:34.525Z,28.50
2018-03-25T14:19:02.070Z,28.70
2018-03-25T14:21:29.493Z,28.60
2018-03-25T14:23:57.728Z,28.60
2018-03-25T14:26:25.199Z,28.60
2018-03-25T14:28:52.678Z,28.90
2018-03-25T14:31:20.551Z,28.70
2018-03-25T14:33:48.018Z,29.00
2018-03-25T14:36:16.256Z,29.40
2018-03-25T14:38:43.699Z,29.40
2018-03-25T14:41:11.187Z,29.80
2018-03-25T14:43:38.651Z,30.10
2018-03-25T14:46:06.863Z,30.90
2018-03-25T14:48:34.342Z,30.20
2018-03-25T14:51:01.799Z,30.40
2018-03-25T14:53:30.155Z,30.90
2018-03-25T14:55:57.629Z,31.30
2018-03-25T14:58:25.064Z,31.30
2018-03-25T15:00:52.535Z,32.00
2018-03-25T15:03:19.991Z,31.90
2018-03-25T15:05:47.467Z,32.60
2018-03-25T15:08:15.675Z,32.80
2018-03-25T15:10:43.887Z,32.90
2018-03-25T15:13:11.356Z,32.80
2018-03-25T15:15:38.834Z,32.70
2018-03-25T15:18:06.295Z,33.00
2018-03-25T15:20:33.753Z,32.60
2018-03-25T15:23:01.240Z,31.90
2018-03-25T15:25:29.462Z,32.20
2018-03-25T15:27:56.958Z,32.20
2018-03-25T15:30:24.439Z,32.10
2018-03-25T15:32:51.907Z,32.00
2018-03-25T15:35:19.381Z,32.50
2018-03-25T15:37:46.826Z,32.20
2018-03-25T15:40:14.288Z,32.20
2018-03-25T15:42:41.739Z,31.70
2018-03-25T15:45:09.218Z,31.60
2018-03-25T15:47:36.659Z,31.40
2018-03-25T15:50:04.130Z,31.70
2018-03-25T15:52:31.616Z,31.30
2018-03-25T15:54:59.055Z,31.30
2018-03-25T15:57:26.533Z,31.40
2018-03-25T15:59:54.000Z,30.90
2018-03-25T16:02:21.463Z,30.90
2018-03-25T16:04:49.308Z,31.10
2018-03-25T16:07:16.810Z,31.30
2018-03-25T16:09:44.258Z,31.70
2018-03-25T16:12:12.498Z,33.20
2018-03-25T16:14:40.373Z,32.60
2018-03-25T16:17:07.811Z,32.60
2018-03-25T16:19:35.254Z,32.40
2018-03-25T16:22:02.791Z,32.70
2018-03-25T16:24:30.186Z,32.90
2018-03-25T16:26:57.719Z,32.80
2018-03-25T16:29:25.280Z,32.70
2018-03-25T16:31:52.714Z,33.70
2018-03-25T16:34:20.943Z,33.30
2018-03-25T16:36:48.405Z,33.30
2018-03-25T16:39:15.869Z,33.50
2018-03-25T16:41:44.369Z,33.80
2018-03-25T16:44:13.046Z,34.60
2018-03-25T16:46:41.269Z,35.00
2018-03-25T16:49:08.733Z,34.50
2018-03-25T16:51:36.205Z,34.50
2018-03-25T16:54:03.660Z,35.00
2018-03-25T16:56:31.158Z,35.30
2018-03-25T16:58:59.740Z,35.50
2018-03-25T17:01:27.969Z,36.50
2018-03-25T17:03:55.438Z,35.70
2018-03-25T17:06:22.900Z,36.30
2018-03-25T17:08:50.361Z,36.50
2018-03-25T17:11:17.824Z,35.90
2018-03-25T17:13:45.344Z,35.70
2018-03-25T17:16:12.808Z,36.90
2018-03-25T17:18:40.343Z,35.80
2018-03-25T17:21:07.769Z,36.30
2018-03-25T17:23:36.003Z,36.70
2018-03-25T17:26:03.479Z,36.20
2018-03-25T17:28:31.693Z,37.00
2018-03-25T17:30:59.162Z,37.30
2018-03-25T17:33:26.626Z,36.70
2018-03-25T17:35:54.087Z,37.20
2018-03-25T17:38:21.540Z,37.10
2018-03-25T17:40:49.031Z,37.50
2018-03-25T17:43:16.490Z,37.10
2018-03-25T17:45:43.941Z,37.70
2018-03-25T17:48:11.409Z,37.50
2018-03-25T17:50:38.855Z,37.60
2018-03-25T17:53:06.328Z,37.80
2018-03-25T17:55:33.820Z,38.00
2018-03-25T17:58:01.248Z,38.40
2018-03-25T18:00:28.770Z,38.00
2018-03-25T18:02:56.242Z,38.30
2018-03-25T18:05:23.709Z,38.70
2018-03-25T18:07:51.953Z,38.40
2018-03-25T18:10:19.393Z,38.20
2018-03-25T18:12:46.871Z,38.50
2018-03-25T18:15:14.427Z,38.80
2018-03-25T18:17:41.879Z,38.80
2018-03-25T18:20:09.337Z,39.20
2018-03-25T18:22:36.831Z,39.40
2018-03-25T18:25:04.267Z,39.80
2018-03-25T18:27:31.731Z,39.80
2018-03-25T18:29:59.205Z,40.30
2018-03-25T18:32:26.660Z,40.40
2018-03-25T18:34:54.143Z,40.60
2018-03-25T18:37:22.388Z,41.00
2018-03-25T18:39:49.941Z,40.90
2018-03-25T18:42:18.123Z,41.40
2018-03-25T18:44:45.569Z,41.30
2018-03-25T18:47:13.078Z,41.00
2018-03-25T18:49:41.290Z,41.40
2018-03-25T18:52:08.734Z,41.40
2018-03-25T18:54:36.195Z,41.40
2018-03-25T18:57:03.667Z,40.80
2018-03-25T18:59:31.929Z,41.30
2018-03-25T19:01:59.387Z,41.20
2018-03-25T19:04:26.836Z,41.30
2018-03-25T19:06:54.296Z,41.60
2018-03-25T19:09:21.786Z,41.40
2018-03-25T19:11:49.261Z,41.40
2018-03-25T19:14:16.709Z,41.10
2018-03-25T19:16:44.181Z,41.40
2018-03-25T19:19:11.652Z,41.90
2018-03-25T19:21:39.907Z,42.40
2018-03-25T19:24:07.373Z,41.60
2018-03-25T19:26:34.851Z,41.80
2018-03-25T19:29:03.066Z,43.10
2018-03-25T19:31:30.540Z,42.40
2018-03-25T19:33:57.990Z,42.10
2018-03-25T19:36:25.457Z,42.60
2018-03-25T19:38:52.919Z,42.60
2018-03-25T19:41:20.380Z,42.30
2018-03-25T19:43:47.846Z,42.80
2018-03-25T19:46:15.290Z,42.40
2018-03-25T19:48:42.861Z,42.90
2018-03-25T19:51:10.311Z,43.40
2018-03-25T19:53:37.768Z,43.50
2018-03-25T19:56:05.233Z,43.20
2018-03-25T19:58:32.708Z,43.30
2018-03-25T20:01:00.942Z,44.00
2018-03-25T20:03:28.413Z,43.80
2018-03-25T20:05:55.884Z,43.40
2018-03-25T20:08:23.341Z,43.60
2018-03-25T20:10:50.817Z,43.40
2018-03-25T20:13:18.277Z,43.50
2018-03-25T20:15:46.499Z,44.30
2018-03-25T20:18:13.967Z,44.20
2018-03-25T20:20:41.428Z,44.10
2018-03-25T20:23:08.906Z,44.20
2018-03-25T20:25:36.360Z,44.30
2018-03-25T20:28:03.863Z,44.70
2018-03-25T20:30:31.296Z,44.50
2018-03-25T20:32:58.730Z,44.90
2018-03-25T20:35:26.195Z,44.90
2018-03-25T20:37:54.416Z,45.40
2018-03-25T20:40:21.890Z,45.40
2018-03-25T20:42:49.623Z,45.50
2018-03-25T20:45:17.083Z,45.90
2018-03-25T20:47:44.553Z,46.00
2018-03-25T20:50:12.006Z,46.10
2018-03-25T20:52:39.566Z,46.10
2018-03-25T20:55:07.078Z,46.40
2018-03-25T20:57:34.496Z,46.50
2018-03-25T21:00:02.168Z,46.70
2018-03-25T21:02:29.640Z,46.80
2018-03-25T21:04:57.082Z,46.90
2018-03-25T21:07:24.570Z,46.90
2018-03-25T21:09:52.068Z,47.10
2018-03-25T21:12:19.591Z,47.40
2018-03-25T21:14:47.802Z,47.90
2018-03-25T21:17:15.257Z,47.80
2018-03-25T21:19:42.722Z,48.00
2018-03-25T21:22:10.170Z,48.10
2018-03-25T21:24:37.634Z,48.40
2018-03-25T21:27:05.087Z,48.60
2018-03-25T21:29:32.554Z,48.50
2018-03-25T21:32:00.010Z,48.40
2018-03-25T21:34:27.485Z,48.60
2018-03-25T21:36:54.933Z,48.50
2018-03-25T21:39:22.407Z,48.60
2018-03-25T21:41:49.871Z,48.90
2018-03-25T21:44:17.347Z,49.10
2018-03-25T21:46:45.604Z,49.00
2018-03-25T21:49:13.192Z,49.00
2018-03-25T21:51:41.439Z,49.10
2018-03-25T21:54:08.933Z,49.10
2018-03-25T21:56:36.363Z,49.50
2018-03-25T21:59:03.817Z,49.60
2018-03-25T22:01:31.268Z,50.00
2018-03-25T22:03:58.734Z,49.80
2018-03-25T22:06:26.270Z,49.80
2018-03-25T22:08:53.739Z,50.00
2018-03-25T22:11:21.206Z,49.90
2018-03-25T22:13:48.700Z,50.00
2018-03-25T22:16:16.920Z,50.00
2018-03-25T22:18:58.899Z,50.00
2018-03-25T22:21:26.378Z,50.70
2018-03-25T22:23:53.859Z,50.10
2018-03-25T22:26:22.139Z,50.10
2018-03-25T22:28:49.590Z,50.10
2018-03-25T22:31:17.068Z,50.10
2018-03-25T22:33:44.553Z,50.00
2018-03-25T22:36:12.009Z,50.10
2018-03-25T22:38:39.514Z,50.20
2018-03-25T22:41:06.931Z,50.40
2018-03-25T22:43:34.390Z,50.50
2018-03-25T22:46:01.855Z,50.30
2018-03-25T22:48:29.396Z,50.20
2018-03-25T22:50:56.826Z,50.20
2018-03-25T22:53:24.300Z,50.10
2018-03-25T22:55:51.826Z,50.20
2018-03-25T22:58:19.255Z,50.40
2018-03-25T23:00:46.742Z,51.00
2018-03-25T23:03:14.267Z,50.30
2018-03-25T23:05:41.714Z,50.40
2018-03-25T23:08:09.197Z,50.50
2018-03-25T23:10:37.471Z,50.40
2018-03-25T23:13:04.926Z,49.90
2018-03-25T23:15:32.399Z,50.00
2018-03-25T23:17:59.880Z,50.50
2018-03-25T23:20:27.355Z,50.40
2018-03-25T23:22:54.819Z,50.80
2018-03-25T23:25:22.292Z,50.50
2018-03-25T23:27:49.746Z,50.80
2018-03-25T23:30:17.236Z,51.00
2018-03-25T23:32:44.676Z,50.60
2018-03-25T23:35:12.154Z,51.30
2018-03-25T23:37:39.595Z,51.20
2018-03-25T23:40:07.067Z,51.60
2018-03-25T23:42:34.516Z,51.10
2018-03-25T23:45:01.979Z,51.80
2018-03-25T23:47:29.428Z,52.00
2018-03-25T23:49:56.898Z,52.00
2018-03-25T23:52:24.352Z,52.20
2018-03-25T23:54:51.812Z,52.50
2018-03-25T23:57:19.289Z,52.60
2018-03-25T23:59:47.516Z,52.90
